Houston, Texas
Traffic Map
Current Weather Conditions
Houston, Texas
Overcast
Overcast
79°
Feels Like: 82°
Wind Chill: 79° Ceiling: 2000
Heat Index: 82° Visibility: 7mi
Dew Point: 74° Wind: 14mph
Humidity: 84% Direction: 120° (ESE)
Pressure: 29.78in Gusts: 0mph
Raw Report DataKIAH 282253Z 12012KT 7SM BKN020 OVC050 26/23 A2978 RMK AO2 SLP085 T02610233
Traffic Incident Summary
Active as of:
Severity:
Category:
InformationThere was an issue retrieving the traffic information for this location. Please try a different location or try again shortly.
Advertisements
Track Severe Weather on mobile